Time;durP1;ratioP1;P1;durP2;ratioP2;P2;SDS_P1;SDS_P2;PMS_P1;PMS_P2;Temp;Humidity;BMP_temperature;BMP_pressure;BME280_temperature;BME280_humidity;BME280_pressure;Samples;Min_cycle;Max_cycle;Signal;HPM_P1;HPM_P2
2021/05/05 00:00:00;;;;;;;4.78;4.35;;;;;;;14.35;71.07;100093.41;5094509;28;20502;-72
2021/05/05 00:02:25;;;;;;;5.28;4.80;;;;;;;14.19;72.96;100087.31;5094449;28;20020;-72
2021/05/05 00:04:53;;;;;;;4.78;4.38;;;;;;;14.14;73.92;100075.28;5094396;28;20119;-72
2021/05/05 00:07:21;;;;;;;5.65;4.38;;;;;;;13.96;74.97;100077.16;5094278;28;20076;-72
2021/05/05 00:09:47;;;;;;;5.63;5.13;;;;;;;13.91;76.17;100076.72;5094286;28;20031;-72
2021/05/05 00:12:12;;;;;;;4.75;4.20;;;;;;;13.96;76.09;100082.75;5094802;28;20032;-72
2021/05/05 00:14:38;;;;;;;5.60;4.50;;;;;;;14.06;75.70;100090.44;5094483;28;20079;-72
2021/05/05 00:17:05;;;;;;;7.28;4.78;;;;;;;14.02;75.48;100091.59;5094445;28;20039;-72
2021/05/05 00:19:33;;;;;;;5.78;4.78;;;;;;;14.05;75.38;100094.38;5094413;28;20495;-72
2021/05/05 00:22:01;;;;;;;5.32;4.78;;;;;;;14.04;75.77;100092.00;5093867;28;20070;-72
2021/05/05 00:24:29;;;;;;;5.05;4.65;;;;;;;14.04;75.50;100092.78;5093779;28;20052;-72
2021/05/05 00:26:55;;;;;;;5.00;4.07;;;;;;;14.06;75.28;100090.44;5094224;28;20500;-72
2021/05/05 00:29:23;;;;;;;3.85;3.55;;;;;;;14.13;75.27;100082.06;5094116;28;20036;-72
2021/05/05 00:31:49;;;;;;;5.38;4.10;;;;;;;14.15;75.02;100085.28;5093916;28;20037;-72
2021/05/05 00:34:19;;;;;;;7.30;3.45;;;;;;;14.09;74.13;100089.63;5093816;28;20028;-72
2021/05/05 00:36:47;;;;;;;4.15;3.85;;;;;;;14.18;74.28;100089.31;5094094;28;20016;-72
2021/05/05 00:39:12;;;;;;;4.05;3.33;;;;;;;14.04;73.57;100087.19;5093760;28;20034;-72
2021/05/05 00:41:38;;;;;;;3.88;3.50;;;;;;;14.10;73.69;100088.44;5093399;28;20030;-72
2021/05/05 00:44:04;;;;;;;3.85;3.40;;;;;;;14.06;74.29;100084.00;5093651;28;20077;-72
2021/05/05 00:46:33;;;;;;;4.47;4.00;;;;;;;14.05;74.28;100074.81;5093562;28;20023;-72
2021/05/05 00:49:04;;;;;;;4.82;4.22;;;;;;;14.00;73.86;100075.16;5094154;28;20119;-72
2021/05/05 00:51:30;;;;;;;4.57;4.10;;;;;;;14.03;73.83;100070.81;5093807;28;20024;-72
2021/05/05 00:53:58;;;;;;;4.80;4.40;;;;;;;14.04;73.79;100080.81;5093473;28;20493;-72
2021/05/05 00:56:26;;;;;;;3.92;3.63;;;;;;;14.07;73.50;100072.44;5094041;28;20085;-71
2021/05/05 00:58:51;;;;;;;5.43;4.10;;;;;;;14.10;73.05;100068.84;5094303;28;20268;-71
2021/05/05 01:01:17;;;;;;;4.75;3.95;;;;;;;14.23;72.17;100076.94;5095995;28;20028;-71
2021/05/05 01:03:42;;;;;;;4.28;3.88;;;;;;;14.24;72.22;100065.34;5094714;28;20371;-71
2021/05/05 01:06:11;;;;;;;3.60;3.30;;;;;;;14.26;71.94;100079.75;5093448;28;20459;-71
2021/05/05 01:08:44;;;;;;;4.70;3.83;;;;;;;14.27;71.76;100077.75;5093761;28;20034;-71
2021/05/05 01:11:12;;;;;;;3.85;3.55;;;;;;;14.21;71.68;100076.50;5093506;28;20055;-71
2021/05/05 01:13:40;;;;;;;3.92;3.63;;;;;;;14.21;71.99;100074.50;5093157;28;20032;-71
2021/05/05 01:16:09;;;;;;;4.55;3.97;;;;;;;14.06;71.81;100072.81;5093052;28;20466;-71
2021/05/05 01:18:37;;;;;;;6.28;4.18;;;;;;;13.83;71.83;100047.88;5093297;28;20036;-72
2021/05/05 01:21:03;;;;;;;6.38;5.35;;;;;;;13.82;74.82;100088.22;5093019;28;20063;-71
2021/05/05 01:23:34;;;;;;;5.70;5.13;;;;;;;13.60;75.43;100079.66;5092944;28;20031;-72
2021/05/05 01:26:05;;;;;;;5.57;5.07;;;;;;;13.78;74.56;100073.41;5092492;28;20063;-72
2021/05/05 01:28:33;;;;;;;8.43;5.38;;;;;;;13.80;74.90;100074.63;5093387;28;20024;-72
2021/05/05 01:31:00;;;;;;;5.43;4.93;;;;;;;13.76;74.85;100070.19;5093459;28;20063;-71
2021/05/05 01:33:28;;;;;;;6.13;4.68;;;;;;;13.80;74.93;100076.63;5092822;28;20462;-71
2021/05/05 01:35:53;;;;;;;7.32;5.32;;;;;;;13.93;74.56;100071.53;5092781;28;20032;-71
2021/05/05 01:38:22;;;;;;;7.00;5.00;;;;;;;14.02;74.38;100072.00;5092766;28;20031;-72
2021/05/05 01:40:47;;;;;;;5.72;5.20;;;;;;;13.99;74.54;100067.97;5092779;28;20111;-71
2021/05/05 01:43:18;;;;;;;6.75;4.50;;;;;;;14.01;74.70;100068.41;5092977;28;20044;-71
2021/05/05 01:45:46;;;;;;;5.22;4.72;;;;;;;14.03;74.51;100068.00;5092676;28;20028;-71
2021/05/05 01:48:12;;;;;;;6.90;5.40;;;;;;;14.00;74.81;100052.00;5093160;28;20359;-71
2021/05/05 01:50:38;;;;;;;8.05;5.05;;;;;;;13.98;73.93;100057.97;5093159;28;20085;-72
2021/05/05 01:53:04;;;;;;;5.78;5.10;;;;;;;14.01;73.37;100054.41;5092608;28;20068;-71
2021/05/05 01:55:35;;;;;;;5.60;4.80;;;;;;;14.03;73.54;100054.81;5075867;28;20032;-71
2021/05/05 01:58:02;;;;;;;5.90;4.75;;;;;;;14.07;73.18;100058.44;5092565;28;20494;-71
2021/05/05 02:00:31;;;;;;;4.75;4.25;;;;;;;14.06;72.96;100054.06;5093075;28;20043;-71
2021/05/05 02:03:03;;;;;;;6.88;5.20;;;;;;;14.00;72.30;100054.78;5092496;28;20032;-71
2021/05/05 02:05:32;;;;;;;6.05;5.40;;;;;;;13.90;71.58;100056.31;5092504;28;20024;-71
2021/05/05 02:08:00;;;;;;;6.53;5.55;;;;;;;13.83;71.48;100050.69;5092402;28;20466;-72
2021/05/05 02:10:27;;;;;;;7.57;5.88;;;;;;;13.71;73.11;100045.41;5093025;28;20061;-72
2021/05/05 02:12:56;;;;;;;6.40;5.63;;;;;;;13.71;73.32;100045.41;5096625;28;20032;-71
2021/05/05 02:15:25;;;;;;;7.13;5.80;;;;;;;13.63;73.08;100045.34;5097079;28;20454;-71
2021/05/05 02:17:51;;;;;;;5.63;5.15;;;;;;;13.71;72.62;100040.59;5096529;28;20027;-71
2021/05/05 02:20:24;;;;;;;5.47;4.97;;;;;;;13.85;71.58;100039.94;5096462;28;20527;-72
2021/05/05 02:22:50;;;;;;;6.72;5.55;;;;;;;13.86;71.65;100035.94;5096417;28;20020;-72
2021/05/05 02:25:19;;;;;;;6.70;5.70;;;;;;;13.93;71.46;100021.97;5096082;28;20101;-71
2021/05/05 02:27:46;;;;;;;7.03;5.35;;;;;;;13.94;71.87;100020.00;5096181;28;20028;-71
2021/05/05 02:30:13;;;;;;;6.32;5.72;;;;;;;13.93;72.42;100023.97;5096549;28;20024;-71
2021/05/05 02:32:41;;;;;;;7.97;6.10;;;;;;;13.99;72.16;100022.41;5096280;28;20020;-72
2021/05/05 02:35:09;;;;;;;8.40;7.32;;;;;;;14.08;72.63;100034.88;5096469;28;20108;-71
2021/05/05 02:37:36;;;;;;;8.77;6.75;;;;;;;14.06;73.85;100028.88;5096787;28;20031;-73
2021/05/05 02:40:02;;;;;;;6.82;6.18;;;;;;;14.12;72.80;100024.50;5096553;28;20457;-72
2021/05/05 02:42:30;;;;;;;6.93;6.15;;;;;;;13.99;74.50;100026.00;5096131;28;20103;-72
2021/05/05 02:45:02;;;;;;;6.00;5.40;;;;;;;13.78;74.47;100028.66;5097275;28;20032;-72
2021/05/05 02:47:30;;;;;;;8.82;6.35;;;;;;;13.60;74.83;100029.34;5096451;28;20020;-72
2021/05/05 02:49:55;;;;;;;6.63;5.93;;;;;;;13.55;74.99;100038.09;5095854;28;20038;-72
2021/05/05 02:52:43;;;;;;;6.80;6.15;;;;;;;13.52;75.05;100007.28;5095839;28;20126;-72
2021/05/05 02:55:14;;;;;;;6.97;5.80;;;;;;;13.68;74.69;100024.59;5096716;28;20039;-72
2021/05/05 02:57:42;;;;;;;6.35;5.68;;;;;;;13.68;74.87;100018.19;5097304;28;20074;-72
2021/05/05 03:00:10;;;;;;;6.18;5.60;;;;;;;13.82;74.87;100016.31;5095710;28;20028;-72
2021/05/05 03:02:35;;;;;;;7.18;6.25;;;;;;;13.87;73.87;100010.38;5096426;28;20028;-72
2021/05/05 03:08:25;;;;;;;6.22;5.38;;;;;;;13.81;74.26;99997.94;5096617;28;20040;-72
2021/05/05 03:10:53;;;;;;;8.73;6.32;;;;;;;13.96;73.02;99990.44;5095481;28;20025;-72
2021/05/05 03:13:19;;;;;;;9.48;6.82;;;;;;;14.01;72.92;99992.88;5095424;28;20028;-72
2021/05/05 03:15:44;;;;;;;10.45;7.03;;;;;;;13.97;74.22;99992.06;5095098;28;20035;-72
2021/05/05 03:18:10;;;;;;;8.75;6.45;;;;;;;13.91;74.58;100001.22;5095333;28;20035;-72
2021/05/05 03:20:41;;;;;;;9.38;7.45;;;;;;;13.88;74.75;99999.97;5095451;28;20035;-72
2021/05/05 03:23:07;;;;;;;12.25;11.05;;;;;;;13.92;74.82;100011.19;5094027;28;20032;-72
2021/05/05 03:25:32;;;;;;;9.65;7.35;;;;;;;13.99;74.22;99998.03;5095783;28;20628;-72
2021/05/05 03:28:03;;;;;;;7.07;6.35;;;;;;;13.96;74.60;100000.84;5096124;28;20129;-73
2021/05/05 03:30:31;;;;;;;9.20;8.25;;;;;;;13.94;74.98;100004.00;5095354;28;20048;-72
2021/05/05 03:32:56;;;;;;;9.05;8.00;;;;;;;13.97;74.65;99996.84;5095078;28;20035;-72
2021/05/05 03:35:24;;;;;;;11.35;10.05;;;;;;;13.95;74.49;100000.00;5095030;28;20032;-72
2021/05/05 03:37:53;;;;;;;9.32;8.35;;;;;;;13.93;74.54;99999.59;5094954;28;20039;-72
2021/05/05 03:40:21;;;;;;;12.68;11.07;;;;;;;13.99;74.56;100012.03;5094954;28;20036;-72
2021/05/05 03:42:47;;;;;;;11.57;8.65;;;;;;;14.00;74.42;100005.25;5094851;28;20028;-72
2021/05/05 03:45:18;;;;;;;6.90;6.20;;;;;;;14.01;74.08;100006.88;5094826;28;20089;-72
2021/05/05 03:47:46;;;;;;;6.20;5.60;;;;;;;14.12;73.88;99999.34;5095278;28;20032;-72
2021/05/05 03:50:15;;;;;;;4.47;4.13;;;;;;;14.05;73.23;99996.47;5095028;28;20093;-72
2021/05/05 03:52:41;;;;;;;5.80;5.30;;;;;;;14.06;74.00;100000.91;5096499;28;20024;-72
2021/05/05 03:55:08;;;;;;;4.25;3.70;;;;;;;14.03;74.26;99996.06;5077894;28;20038;-72
2021/05/05 04:00:21;;;;;;;5.97;3.78;;;;;;;14.14;72.49;99988.53;5096099;28;20081;-72
2021/05/05 04:02:47;;;;;;;5.85;4.53;;;;;;;13.94;72.99;99992.81;5094453;28;20042;-72
2021/05/05 04:05:13;;;;;;;4.93;4.00;;;;;;;13.83;73.79;99998.34;5094351;28;20119;-72
2021/05/05 04:07:39;;;;;;;5.80;4.47;;;;;;;13.83;73.92;100000.34;5094247;28;20066;-72
2021/05/05 04:10:13;;;;;;;6.53;4.22;;;;;;;13.85;73.77;99997.97;5094893;28;20024;-72
2021/05/05 04:12:40;;;;;;;4.78;4.35;;;;;;;13.73;74.58;99998.28;5094260;28;20028;-72
2021/05/05 04:15:06;;;;;;;7.45;5.72;;;;;;;13.74;75.63;100005.47;5094255;28;20035;-72
2021/05/05 04:17:32;;;;;;;7.43;6.65;;;;;;;13.80;75.46;99992.75;5094135;28;20157;-72
2021/05/05 04:20:03;;;;;;;8.15;6.25;;;;;;;13.81;75.97;99994.34;5094402;28;20062;-72
2021/05/05 04:22:29;;;;;;;6.38;5.30;;;;;;;13.83;75.78;99997.53;5094049;28;20032;-72
2021/05/05 04:24:57;;;;;;;6.68;5.57;;;;;;;13.74;75.87;99997.06;5093698;28;20048;-72
2021/05/05 04:27:22;;;;;;;7.15;4.88;;;;;;;13.79;75.82;99996.72;5093292;28;20028;-72
2021/05/05 04:29:48;;;;;;;6.43;5.40;;;;;;;13.79;75.78;99999.50;5093920;28;20119;-72
2021/05/05 04:32:16;;;;;;;7.72;5.60;;;;;;;13.75;76.23;100007.09;5093928;28;20431;-72
2021/05/05 04:34:44;;;;;;;5.45;4.55;;;;;;;13.81;75.72;100008.31;5093550;28;20039;-72
2021/05/05 04:37:10;;;;;;;6.97;5.72;;;;;;;13.87;75.63;100009.56;5094625;28;20028;-72
2021/05/05 04:39:37;;;;;;;9.40;5.15;;;;;;;13.86;75.21;100010.75;5094569;28;20390;-72
2021/05/05 04:42:07;;;;;;;5.25;4.70;;;;;;;13.92;75.14;100017.59;5093716;28;20039;-72
2021/05/05 04:44:35;;;;;;;6.88;4.85;;;;;;;13.95;75.31;100019.59;5094964;28;20039;-72
2021/05/05 04:47:04;;;;;;;7.82;5.40;;;;;;;14.09;74.80;100016.09;5094101;28;20027;-72
2021/05/05 04:49:36;;;;;;;6.38;5.65;;;;;;;14.15;75.10;100020.91;5093903;28;20123;-72
2021/05/05 04:52:01;;;;;;;6.47;5.88;;;;;;;14.28;75.17;100015.81;5093541;28;20023;-72
2021/05/05 04:54:29;;;;;;;8.05;5.35;;;;;;;14.26;75.49;100009.78;5094011;28;20042;-71
2021/05/05 04:56:55;;;;;;;6.05;5.55;;;;;;;14.23;75.63;100015.38;5094011;28;20067;-71
2021/05/05 04:59:24;;;;;;;5.88;5.28;;;;;;;14.35;75.26;100020.63;5093328;28;20035;-72
2021/05/05 05:01:49;;;;;;;8.40;5.07;;;;;;;14.31;75.49;100022.59;5093303;28;20067;-72
2021/05/05 05:04:15;;;;;;;5.50;4.38;;;;;;;14.32;74.95;100013.00;5093292;28;20058;-71
2021/05/05 05:06:40;;;;;;;5.25;4.75;;;;;;;14.33;74.82;100020.22;5093220;28;20023;-72
2021/05/05 05:09:09;;;;;;;4.07;3.72;;;;;;;14.42;73.66;100017.84;5092935;28;20035;-72
2021/05/05 05:11:40;;;;;;;4.07;3.50;;;;;;;14.30;72.95;99993.03;5093140;28;20056;-72
2021/05/05 05:14:08;;;;;;;5.88;3.33;;;;;;;14.57;72.47;100024.34;5093143;28;20093;-72
2021/05/05 05:16:39;;;;;;;3.90;3.35;;;;;;;14.62;71.93;100032.38;5093120;28;20493;-72
2021/05/05 05:19:11;;;;;;;4.05;3.67;;;;;;;14.71;71.03;100029.22;5093107;28;20123;-72
2021/05/05 05:21:39;;;;;;;4.10;3.70;;;;;;;14.76;69.06;100038.03;5093324;28;20038;-72
2021/05/05 05:24:06;;;;;;;3.47;3.00;;;;;;;14.86;69.73;100028.03;5093798;28;20523;-72
2021/05/05 05:26:31;;;;;;;5.28;3.70;;;;;;;14.86;69.91;100044.84;5093402;28;20371;-72
2021/05/05 05:28:57;;;;;;;6.63;4.03;;;;;;;14.88;69.94;100034.06;5093217;28;20123;-72
2021/05/05 05:31:22;;;;;;;4.50;3.90;;;;;;;14.97;69.46;100039.28;5092841;28;20492;-72
2021/05/05 05:33:48;;;;;;;5.00;4.60;;;;;;;15.10;68.90;100035.72;5092546;28;20040;-72
2021/05/05 05:36:19;;;;;;;4.15;3.85;;;;;;;15.25;68.79;100032.97;5093371;28;20032;-72
2021/05/05 05:38:48;;;;;;;5.57;4.70;;;;;;;15.33;67.76;100040.16;5092778;28;20043;-72
2021/05/05 05:41:13;;;;;;;7.65;4.90;;;;;;;15.44;67.34;100041.78;5093064;28;20137;-72
2021/05/05 05:43:41;;;;;;;7.70;5.60;;;;;;;15.58;67.02;100049.41;5092637;28;20482;-72
2021/05/05 05:46:07;;;;;;;6.60;5.10;;;;;;;15.97;65.59;100051.41;5092077;28;20028;-72
2021/05/05 05:48:37;;;;;;;5.78;4.68;;;;;;;16.24;63.12;100046.97;5092618;28;20039;-72
2021/05/05 05:51:04;;;;;;;9.98;5.47;;;;;;;17.38;59.40;100050.50;5092811;28;20032;-72
2021/05/05 05:53:33;;;;;;;7.35;6.22;;;;;;;18.15;55.78;100053.06;5092742;28;20089;-72
2021/05/05 05:55:59;;;;;;;6.75;5.00;;;;;;;18.70;53.95;100050.06;5092520;28;20031;-72
2021/05/05 05:58:24;;;;;;;6.47;4.82;;;;;;;18.94;52.26;100062.25;5092195;28;20024;-72
2021/05/05 06:00:52;;;;;;;6.90;5.03;;;;;;;18.16;54.58;100055.47;5093077;28;20035;-72
2021/05/05 06:03:18;;;;;;;4.88;4.43;;;;;;;18.36;53.33;100063.31;5092503;28;20028;-72
2021/05/05 06:05:46;;;;;;;4.90;4.30;;;;;;;18.26;54.32;100065.81;5093009;28;20044;-72
2021/05/05 06:08:13;;;;;;;5.70;4.65;;;;;;;17.88;54.63;100070.59;5091991;28;20056;-72
2021/05/05 06:10:41;;;;;;;5.10;3.65;;;;;;;17.86;54.37;100072.25;5093024;28;20036;-72
2021/05/05 06:13:11;;;;;;;4.30;3.83;;;;;;;17.68;56.20;100090.03;5092388;28;20032;-72
2021/05/05 06:15:39;;;;;;;6.93;4.10;;;;;;;18.15;54.62;100070.75;5092105;28;20039;-72
2021/05/05 06:18:06;;;;;;;4.28;3.80;;;;;;;18.30;53.82;100075.03;5092146;28;20038;-72
2021/05/05 06:20:35;;;;;;;7.55;5.00;;;;;;;18.51;54.22;100068.38;5092096;28;20038;-72
2021/05/05 06:23:03;;;;;;;6.47;4.38;;;;;;;18.47;52.89;100066.81;5091890;28;20063;-73
2021/05/05 06:25:28;;;;;;;5.28;4.78;;;;;;;18.73;53.60;100059.69;5090167;28;20466;-72
2021/05/05 06:27:56;;;;;;;5.15;4.65;;;;;;;18.40;54.73;100069.72;5092683;28;20051;-73
2021/05/05 06:30:22;;;;;;;5.43;4.15;;;;;;;18.01;54.43;100060.44;5092154;28;20032;-72
2021/05/05 06:32:48;;;;;;;4.93;4.45;;;;;;;17.85;54.91;100068.63;5092155;28;20057;-71
2021/05/05 06:35:17;;;;;;;4.15;3.75;;;;;;;18.49;52.68;100061.56;5092054;28;20040;-71
2021/05/05 06:37:43;;;;;;;4.32;3.92;;;;;;;18.74;51.26;100058.47;5092015;28;20028;-72
2021/05/05 06:40:09;;;;;;;4.15;3.83;;;;;;;18.87;51.07;100064.38;5092195;28;20024;-72
2021/05/05 06:42:35;;;;;;;3.80;3.50;;;;;;;18.91;50.93;100059.47;5092239;28;20031;-72
2021/05/05 06:45:05;;;;;;;4.30;3.90;;;;;;;18.98;51.40;100071.47;5092009;28;20028;-72
2021/05/05 06:47:33;;;;;;;12.20;4.00;;;;;;;18.73;52.47;100065.34;5092140;28;20024;-72
2021/05/05 06:49:59;;;;;;;8.25;4.43;;;;;;;18.94;51.92;100067.09;5091912;28;20538;-72
2021/05/05 06:52:27;;;;;;;4.93;3.97;;;;;;;18.02;52.58;100038.72;5091856;28;20115;-72
2021/05/05 06:54:55;;;;;;;5.30;3.88;;;;;;;18.15;52.91;100069.97;5091987;28;20035;-72
2021/05/05 06:57:25;;;;;;;5.60;3.58;;;;;;;18.30;53.25;100066.59;5093698;28;20119;-71
2021/05/05 06:59:53;;;;;;;4.15;3.53;;;;;;;18.49;51.41;100068.00;5096288;28;20458;-72
2021/05/05 07:02:24;;;;;;;6.40;3.97;;;;;;;18.50;51.14;100068.81;5095957;28;20388;-71
2021/05/05 07:04:52;;;;;;;4.97;4.35;;;;;;;18.84;50.43;100066.00;5095910;28;20136;-72
2021/05/05 07:07:18;;;;;;;5.57;4.50;;;;;;;18.60;50.72;100053.78;5095467;28;20466;-72
2021/05/05 07:09:43;;;;;;;4.55;3.70;;;;;;;18.33;51.32;100060.13;5095558;28;20047;-71
2021/05/05 07:12:11;;;;;;;4.72;3.95;;;;;;;18.26;51.89;100053.75;5095481;28;20016;-71
2021/05/05 07:14:42;;;;;;;5.13;4.00;;;;;;;18.07;52.48;100057.97;5095406;28;20036;-71
2021/05/05 07:17:07;;;;;;;6.50;4.07;;;;;;;18.60;51.53;100056.59;5095538;28;20060;-72
2021/05/05 07:19:36;;;;;;;5.18;4.78;;;;;;;18.10;52.63;100065.56;5095328;28;20371;-72
2021/05/05 07:22:02;;;;;;;8.23;5.07;;;;;;;18.39;51.92;100051.22;5096293;28;20096;-72
2021/05/05 07:24:28;;;;;;;5.65;4.97;;;;;;;18.49;51.55;100055.94;5095108;28;20448;-72
2021/05/05 07:26:53;;;;;;;5.32;4.60;;;;;;;18.36;51.50;100057.69;5094921;28;20028;-72
2021/05/05 07:29:22;;;;;;;5.35;4.78;;;;;;;18.21;52.03;100057.81;5095172;28;20111;-72
2021/05/05 07:31:50;;;;;;;4.85;4.45;;;;;;;18.53;51.41;100053.84;5095639;28;20051;-72
2021/05/05 07:34:23;;;;;;;8.90;4.30;;;;;;;18.62;50.21;100053.38;5096066;28;20036;-72
2021/05/05 07:36:53;;;;;;;5.60;4.65;;;;;;;18.74;49.54;100062.09;5095315;28;20024;-72
2021/05/05 07:47:25;;;;;;;4.25;3.88;;;;;;;19.40;49.17;100074.13;5095210;28;20619;-72
2021/05/05 07:49:52;;;;;;;4.65;3.88;;;;;;;19.42;49.51;100072.44;5094210;28;20036;-72
2021/05/05 07:52:19;;;;;;;5.20;4.72;;;;;;;19.45;49.52;100082.09;5094231;28;20032;-72
2021/05/05 07:54:46;;;;;;;5.10;4.60;;;;;;;19.21;50.68;100084.03;5094608;28;20031;-72
2021/05/05 07:57:14;;;;;;;5.70;5.03;;;;;;;18.64;51.84;100085.53;5094487;28;20016;-72
2021/05/05 07:59:45;;;;;;;5.57;4.97;;;;;;;18.32;53.56;100078.25;5094529;28;20024;-72
2021/05/05 08:02:13;;;;;;;6.13;4.55;;;;;;;18.60;53.43;100073.53;5094720;28;20369;-72
2021/05/05 08:04:49;;;;;;;8.75;5.28;;;;;;;18.32;54.28;100075.44;5094167;28;20028;-72
2021/05/05 08:07:21;;;;;;;6.57;5.88;;;;;;;18.47;54.22;100080.91;5094319;28;20020;-72
2021/05/05 08:09:50;;;;;;;6.43;5.38;;;;;;;18.14;55.51;100086.06;5094710;28;20024;-72
2021/05/05 08:12:16;;;;;;;7.18;5.25;;;;;;;18.62;54.75;100087.97;5094244;28;20056;-72
2021/05/05 08:14:46;;;;;;;10.13;6.88;;;;;;;18.53;54.77;100082.03;5093980;28;20036;-72
2021/05/05 08:17:12;;;;;;;7.25;6.30;;;;;;;18.47;55.61;100078.06;5094756;28;20028;-72
2021/05/05 08:19:38;;;;;;;7.95;6.20;;;;;;;18.31;55.87;100095.53;5093792;28;20031;-72
2021/05/05 08:22:05;;;;;;;7.93;6.38;;;;;;;18.31;54.92;100101.19;5094439;28;20020;-72
2021/05/05 08:24:31;;;;;;;7.03;6.32;;;;;;;18.34;55.11;100094.72;5093488;28;20052;-71
2021/05/05 08:26:59;;;;;;;7.95;5.97;;;;;;;18.22;54.54;100093.25;5093668;28;20119;-72
2021/05/05 08:29:31;;;;;;;8.13;5.57;;;;;;;18.54;54.40;100097.75;5093711;28;20055;-72
2021/05/05 08:31:58;;;;;;;5.53;5.03;;;;;;;18.58;54.71;100098.47;5094479;28;20044;-72
2021/05/05 08:34:26;;;;;;;4.63;3.42;;;;;;;19.11;52.71;100097.06;5093920;28;20463;-72
2021/05/05 08:36:54;;;;;;;3.08;2.80;;;;;;;19.49;50.39;100096.94;5093632;28;20032;-72
2021/05/05 08:39:20;;;;;;;3.63;2.63;;;;;;;19.54;49.77;100102.09;5094137;28;20028;-72
2021/05/05 08:41:46;;;;;;;3.58;2.38;;;;;;;19.23;50.13;100118.25;5093456;28;20039;-72
2021/05/05 08:44:15;;;;;;;5.03;2.00;;;;;;;19.69;48.99;100120.44;5093616;28;20344;-72
2021/05/05 08:46:43;;;;;;;4.63;1.85;;;;;;;20.04;47.98;100107.00;5093488;28;20039;-72
2021/05/05 08:49:13;;;;;;;3.60;2.00;;;;;;;20.35;47.73;100113.31;5093540;28;20024;-72
2021/05/05 08:51:39;;;;;;;2.92;2.33;;;;;;;19.85;49.04;100106.47;5093520;28;20383;-72
2021/05/05 08:54:07;;;;;;;5.43;2.80;;;;;;;19.85;49.82;100111.31;5094178;28;20386;-72
2021/05/05 08:56:36;;;;;;;4.38;2.30;;;;;;;19.52;49.66;100121.47;5093373;28;20032;-72
2021/05/05 08:59:15;;;;;;;2.78;2.17;;;;;;;19.71;48.73;100123.66;5093079;28;20035;-72
2021/05/05 09:01:42;;;;;;;3.33;1.83;;;;;;;19.93;48.68;100121.28;5094336;28;20036;-72
2021/05/05 09:04:09;;;;;;;2.42;1.70;;;;;;;19.92;48.58;100122.53;5094501;28;20028;-72
2021/05/05 09:06:55;;;;;;;1.85;1.75;;;;;;;19.99;48.03;100138.53;5092959;28;20032;-72
2021/05/05 09:09:45;;;;;;;3.47;1.90;;;;;;;19.93;47.62;100123.31;5094444;28;20028;-72
2021/05/05 09:12:15;;;;;;;2.90;1.70;;;;;;;20.32;46.80;100122.63;5092818;28;20031;-72
2021/05/05 09:15:00;;;;;;;3.60;1.92;;;;;;;20.19;46.32;100096.22;5092902;28;20024;-72
2021/05/05 09:17:31;;;;;;;3.08;1.70;;;;;;;20.35;45.62;100121.78;5093391;28;20078;-72
2021/05/05 09:20:05;;;;;;;3.28;2.00;;;;;;;20.67;45.63;100122.00;5092480;28;20466;-72
2021/05/05 09:22:53;;;;;;;2.42;1.83;;;;;;;20.70;45.40;100120.34;5092687;28;20028;-72
2021/05/05 09:25:50;;;;;;;3.47;1.73;;;;;;;21.44;44.73;100118.00;5092286;28;20054;-72
2021/05/05 09:28:22;;;;;;;6.28;2.13;;;;;;;22.72;41.59;100110.34;5091852;28;20032;-72
2021/05/05 09:30:56;;;;;;;1.60;1.33;;;;;;;23.59;40.00;100095.19;5092974;28;20363;-72
2021/05/05 09:33:33;;;;;;;1.73;1.50;;;;;;;23.86;38.16;100098.41;5092577;28;20055;-72
2021/05/05 09:36:05;;;;;;;1.40;1.30;;;;;;;23.85;38.85;100108.19;5092876;28;20045;-72
2021/05/05 09:38:49;;;;;;;3.28;1.30;;;;;;;25.19;36.19;100111.63;5093085;28;20366;-72
2021/05/05 09:41:20;;;;;;;3.72;1.52;;;;;;;25.22;36.06;100110.69;5093485;28;20425;-73
2021/05/05 09:43:47;;;;;;;4.03;1.70;;;;;;;24.30;37.43;100122.09;5092307;28;20031;-72
2021/05/05 09:46:31;;;;;;;1.42;1.23;;;;;;;23.10;40.59;100121.03;5092588;28;20038;-73
2021/05/05 09:49:25;;;;;;;3.90;1.48;;;;;;;23.36;39.86;100125.53;5092335;28;20470;-73
2021/05/05 09:51:57;;;;;;;2.50;1.52;;;;;;;22.42;42.45;100117.22;5092198;28;20024;-73
2021/05/05 09:55:00;;;;;;;1.60;1.35;;;;;;;22.45;43.13;100116.34;5092226;28;20557;-72
2021/05/05 09:57:30;;;;;;;1.85;1.45;;;;;;;22.61;42.83;100115.53;5091567;28;20054;-72
2021/05/05 10:00:03;;;;;;;1.85;1.52;;;;;;;23.33;41.42;100122.78;5091973;28;20475;-72
2021/05/05 10:02:39;;;;;;;2.20;1.98;;;;;;;23.59;40.63;100110.19;5091792;28;20028;-72
2021/05/05 10:05:09;;;;;;;4.30;1.55;;;;;;;23.67;40.58;100119.34;5092027;28;20065;-72
2021/05/05 10:07:56;;;;;;;1.80;1.50;;;;;;;22.87;41.71;100114.38;5091942;28;20021;-72
2021/05/05 10:10:26;;;;;;;4.20;1.25;;;;;;;22.41;43.47;100118.47;5092802;28;20024;-72
2021/05/05 10:12:56;;;;;;;2.17;1.35;;;;;;;23.10;41.93;100119.00;5092488;28;20028;-72
2021/05/05 10:15:23;;;;;;;3.05;1.85;;;;;;;22.64;42.83;100106.13;5092125;28;20028;-72
2021/05/05 10:17:53;;;;;;;2.38;1.50;;;;;;;22.25;43.76;100102.28;5092440;28;20424;-72
2021/05/05 10:20:40;;;;;;;3.25;1.77;;;;;;;22.59;43.53;100109.50;5092527;28;20103;-72
2021/05/05 10:23:05;;;;;;;1.98;1.15;;;;;;;22.29;44.08;100103.00;5091245;28;20089;-72
2021/05/05 10:25:33;;;;;;;3.92;1.58;;;;;;;22.81;43.01;100101.19;5091677;28;20055;-72
2021/05/05 10:28:00;;;;;;;3.60;1.90;;;;;;;23.52;42.13;100097.03;5091799;28;20028;-72
2021/05/05 10:30:31;;;;;;;2.33;1.33;;;;;;;23.38;42.44;100093.81;5091916;28;20119;-72
2021/05/05 10:33:00;;;;;;;1.60;1.50;;;;;;;24.10;41.00;100104.50;5095605;28;20425;-72
2021/05/05 10:35:26;;;;;;;2.83;1.60;;;;;;;23.90;40.98;100107.59;5095862;28;20382;-72
2021/05/05 10:37:57;;;;;;;1.65;1.55;;;;;;;23.15;41.77;100094.94;5095882;28;20024;-72
2021/05/05 10:40:28;;;;;;;1.67;1.40;;;;;;;22.89;43.21;100103.38;5097014;28;20162;-72
2021/05/05 10:42:58;;;;;;;2.60;2.15;;;;;;;21.86;45.21;100106.91;5095717;28;20020;-72
2021/05/05 10:45:36;;;;;;;3.08;1.80;;;;;;;21.89;45.82;100111.69;5095650;28;20100;-72
2021/05/05 10:48:07;;;;;;;3.35;1.88;;;;;;;22.36;44.50;100082.97;5095499;28;20038;-72
2021/05/05 10:50:51;;;;;;;3.95;2.42;;;;;;;20.86;48.10;100072.34;5095611;28;20513;-72
2021/05/05 10:53:23;;;;;;;;;;;;;;;21.61;46.53;100095.38;5096026;28;20050;-72
2021/05/05 10:56:00;;;;;;;2.70;1.80;;;;;;;22.18;44.64;100085.50;5095659;28;19915;-72
2021/05/05 10:58:30;;;;;;;3.60;2.17;;;;;;;22.36;44.89;100091.47;5095414;28;20028;-72
2021/05/05 11:01:37;;;;;;;3.13;2.03;;;;;;;22.13;45.42;100100.19;5078835;28;20032;-72
2021/05/05 11:04:04;;;;;;;2.15;1.90;;;;;;;22.09;45.14;100088.13;5095496;28;20032;-72
2021/05/05 11:06:33;;;;;;;2.75;1.92;;;;;;;22.71;44.38;100092.53;5095450;28;20031;-72
2021/05/05 11:09:11;;;;;;;2.53;1.73;;;;;;;21.55;46.60;100085.81;5095343;28;20024;-72
2021/05/05 11:11:38;;;;;;;4.35;2.45;;;;;;;21.93;46.22;100086.09;5095254;28;20031;-72
2021/05/05 11:14:03;;;;;;;3.83;2.97;;;;;;;21.77;46.63;100066.28;5095229;28;20036;-72
2021/05/05 11:19:40;;;;;;;2.20;1.80;;;;;;;22.19;45.47;100075.75;5063446;28;20032;-72
2021/05/05 11:22:07;;;;;;;5.13;2.15;;;;;;;22.41;45.00;100081.63;5095837;28;20028;-72
2021/05/05 11:24:36;;;;;;;4.97;1.70;;;;;;;22.44;44.97;100092.88;5094411;28;20056;-72
2021/05/05 11:27:08;;;;;;;1.73;1.63;;;;;;;22.84;43.75;100094.59;5094616;28;20221;-72
2021/05/05 11:29:40;;;;;;;2.03;1.70;;;;;;;23.17;43.08;100103.78;5096232;28;20024;-71
2021/05/05 11:32:09;;;;;;;1.80;1.70;;;;;;;22.54;44.15;100091.00;5096496;28;20062;-72
2021/05/05 11:34:39;;;;;;;1.67;1.58;;;;;;;22.21;44.55;100093.91;5095175;28;20039;-72
2021/05/05 11:37:08;;;;;;;2.72;1.77;;;;;;;21.86;45.47;100086.28;5095828;28;20436;-72
2021/05/05 11:39:45;;;;;;;1.55;1.45;;;;;;;22.64;43.94;100077.78;5094754;28;20100;-72
2021/05/05 11:42:17;;;;;;;2.92;1.80;;;;;;;22.95;43.44;100087.41;5094743;28;20067;-72
2021/05/05 11:44:51;;;;;;;3.33;1.30;;;;;;;22.76;43.82;100091.19;5094094;28;20085;-72
2021/05/05 11:47:24;;;;;;;3.42;1.90;;;;;;;23.05;43.76;100096.06;5096255;28;20031;-72
2021/05/05 11:49:53;;;;;;;1.40;1.30;;;;;;;23.10;43.55;100098.34;5094640;28;20020;-72
2021/05/05 11:52:34;;;;;;;2.67;1.88;;;;;;;22.35;44.40;100098.38;5095097;28;20421;-72